sensor_id;sensor_type;location;lat;lon;timestamp;pressure;altitude;pressure_sealevel;temperature;humidity
7335;BME280;3708;42.632;23.378;2023-05-07T00:00:04;94522.91;;;16.02;47.56
7335;BME280;3708;42.632;23.378;2023-05-07T00:02:33;94526.72;;;15.86;47.79
7335;BME280;3708;42.632;23.378;2023-05-07T00:05:00;94521.78;;;15.84;47.78
7335;BME280;3708;42.632;23.378;2023-05-07T00:07:27;94532.31;;;15.65;48.22
7335;BME280;3708;42.632;23.378;2023-05-07T00:09:54;94532.00;;;15.70;48.04
7335;BME280;3708;42.632;23.378;2023-05-07T00:12:21;94544.09;;;15.87;47.95
7335;BME280;3708;42.632;23.378;2023-05-07T00:14:48;94541.78;;;15.85;47.71
7335;BME280;3708;42.632;23.378;2023-05-07T00:17:16;94543.59;;;15.66;48.63
7335;BME280;3708;42.632;23.378;2023-05-07T00:19:43;94545.25;;;15.55;49.39
7335;BME280;3708;42.632;23.378;2023-05-07T00:22:09;94542.94;;;15.69;49.41
7335;BME280;3708;42.632;23.378;2023-05-07T00:24:36;94540.13;;;15.62;50.08
7335;BME280;3708;42.632;23.378;2023-05-07T00:27:03;94538.94;;;15.59;50.03
7335;BME280;3708;42.632;23.378;2023-05-07T00:29:30;94538.00;;;15.52;50.64
7335;BME280;3708;42.632;23.378;2023-05-07T00:31:57;94531.28;;;15.54;51.24
7335;BME280;3708;42.632;23.378;2023-05-07T00:34:25;94540.47;;;15.60;51.56
7335;BME280;3708;42.632;23.378;2023-05-07T00:36:52;94533.81;;;15.66;51.63
7335;BME280;3708;42.632;23.378;2023-05-07T00:39:19;94534.94;;;15.50;51.81
7335;BME280;3708;42.632;23.378;2023-05-07T00:41:45;94536.81;;;15.49;52.10
7335;BME280;3708;42.632;23.378;2023-05-07T00:44:12;94534.50;;;15.63;51.75
7335;BME280;3708;42.632;23.378;2023-05-07T00:46:40;94541.06;;;15.69;51.73
7335;BME280;3708;42.632;23.378;2023-05-07T00:49:07;94536.63;;;15.73;51.53
7335;BME280;3708;42.632;23.378;2023-05-07T00:51:35;94545.44;;;15.46;52.08
7335;BME280;3708;42.632;23.378;2023-05-07T00:54:02;94535.25;;;15.17;51.27
7335;BME280;3708;42.632;23.378;2023-05-07T00:56:31;94538.69;;;14.74;51.78
7335;BME280;3708;42.632;23.378;2023-05-07T00:58:58;94539.50;;;14.11;53.08
7335;BME280;3708;42.632;23.378;2023-05-07T01:01:25;94535.78;;;14.12;52.97
7335;BME280;3708;42.632;23.378;2023-05-07T01:03:52;94533.72;;;14.05;53.37
7335;BME280;3708;42.632;23.378;2023-05-07T01:06:21;94544.47;;;14.12;53.11
7335;BME280;3708;42.632;23.378;2023-05-07T01:08:50;94538.50;;;14.27;53.19
7335;BME280;3708;42.632;23.378;2023-05-07T01:11:18;94544.19;;;14.41;52.62
7335;BME280;3708;42.632;23.378;2023-05-07T01:13:46;94552.38;;;14.00;53.47
7335;BME280;3708;42.632;23.378;2023-05-07T01:16:13;94552.28;;;13.97;54.16
7335;BME280;3708;42.632;23.378;2023-05-07T01:18:40;94554.31;;;14.15;53.37
7335;BME280;3708;42.632;23.378;2023-05-07T01:21:08;94547.19;;;14.16;53.34
7335;BME280;3708;42.632;23.378;2023-05-07T01:23:39;94551.75;;;13.79;54.87
7335;BME280;3708;42.632;23.378;2023-05-07T01:26:06;94545.34;;;14.04;54.42
7335;BME280;3708;42.632;23.378;2023-05-07T01:28:33;94536.75;;;14.19;53.97
7335;BME280;3708;42.632;23.378;2023-05-07T01:31:02;94534.97;;;14.23;53.97
7335;BME280;3708;42.632;23.378;2023-05-07T01:33:33;94541.84;;;14.12;54.25
7335;BME280;3708;42.632;23.378;2023-05-07T01:36:02;94541.63;;;14.05;54.40
7335;BME280;3708;42.632;23.378;2023-05-07T01:38:31;94531.34;;;13.88;55.53
7335;BME280;3708;42.632;23.378;2023-05-07T01:41:00;94532.25;;;13.80;56.15
7335;BME280;3708;42.632;23.378;2023-05-07T01:43:28;94522.78;;;13.79;56.32
7335;BME280;3708;42.632;23.378;2023-05-07T01:45:56;94525.75;;;13.77;56.69
7335;BME280;3708;42.632;23.378;2023-05-07T01:48:24;94525.69;;;14.02;56.63
7335;BME280;3708;42.632;23.378;2023-05-07T01:50:52;94521.72;;;13.80;57.71
7335;BME280;3708;42.632;23.378;2023-05-07T01:53:19;94519.78;;;14.05;56.90
7335;BME280;3708;42.632;23.378;2023-05-07T01:55:46;94512.81;;;13.72;57.69
7335;BME280;3708;42.632;23.378;2023-05-07T01:58:14;94517.84;;;13.90;57.53
7335;BME280;3708;42.632;23.378;2023-05-07T02:00:41;94505.38;;;13.62;57.93
7335;BME280;3708;42.632;23.378;2023-05-07T02:03:08;94511.84;;;13.65;58.22
7335;BME280;3708;42.632;23.378;2023-05-07T02:05:34;94499.56;;;13.33;59.04
7335;BME280;3708;42.632;23.378;2023-05-07T02:08:01;94501.34;;;13.41;59.38
7335;BME280;3708;42.632;23.378;2023-05-07T02:10:28;94499.66;;;13.72;58.37
7335;BME280;3708;42.632;23.378;2023-05-07T02:12:55;94494.41;;;13.60;58.71
7335;BME280;3708;42.632;23.378;2023-05-07T02:15:23;94495.94;;;13.61;58.23
7335;BME280;3708;42.632;23.378;2023-05-07T02:18:00;94485.28;;;13.70;58.67
7335;BME280;3708;42.632;23.378;2023-05-07T02:20:27;94485.47;;;13.89;58.06
7335;BME280;3708;42.632;23.378;2023-05-07T02:22:54;94495.81;;;13.82;57.90
7335;BME280;3708;42.632;23.378;2023-05-07T02:25:21;94483.09;;;13.84;57.75
7335;BME280;3708;42.632;23.378;2023-05-07T02:27:48;94490.31;;;13.75;57.72
7335;BME280;3708;42.632;23.378;2023-05-07T02:30:15;94498.31;;;13.78;57.94
7335;BME280;3708;42.632;23.378;2023-05-07T02:32:43;94486.59;;;13.76;58.15
7335;BME280;3708;42.632;23.378;2023-05-07T02:35:10;94487.91;;;13.82;57.69
7335;BME280;3708;42.632;23.378;2023-05-07T02:37:37;94494.28;;;13.69;58.00
7335;BME280;3708;42.632;23.378;2023-05-07T02:40:05;94489.78;;;13.82;57.45
7335;BME280;3708;42.632;23.378;2023-05-07T02:42:32;94484.28;;;13.74;57.63
7335;BME280;3708;42.632;23.378;2023-05-07T02:44:59;94486.50;;;13.48;59.02
7335;BME280;3708;42.632;23.378;2023-05-07T02:47:25;94483.66;;;13.53;58.74
7335;BME280;3708;42.632;23.378;2023-05-07T02:49:55;94491.22;;;13.55;58.94
7335;BME280;3708;42.632;23.378;2023-05-07T02:52:22;94490.34;;;13.51;58.80
7335;BME280;3708;42.632;23.378;2023-05-07T02:54:49;94487.06;;;13.42;59.44
7335;BME280;3708;42.632;23.378;2023-05-07T02:57:15;94489.38;;;13.43;59.35
7335;BME280;3708;42.632;23.378;2023-05-07T02:59:42;94488.84;;;13.50;59.28
7335;BME280;3708;42.632;23.378;2023-05-07T03:02:09;94488.94;;;13.29;59.67
7335;BME280;3708;42.632;23.378;2023-05-07T03:04:36;94492.31;;;13.18;60.94
7335;BME280;3708;42.632;23.378;2023-05-07T03:07:04;94493.75;;;13.27;60.63
7335;BME280;3708;42.632;23.378;2023-05-07T03:09:31;94488.84;;;13.50;60.01
7335;BME280;3708;42.632;23.378;2023-05-07T03:11:58;94492.31;;;13.42;60.44
7335;BME280;3708;42.632;23.378;2023-05-07T03:14:24;94502.19;;;13.57;60.35
7335;BME280;3708;42.632;23.378;2023-05-07T03:16:51;94496.16;;;13.68;59.80
7335;BME280;3708;42.632;23.378;2023-05-07T03:19:18;94505.81;;;13.64;60.07
7335;BME280;3708;42.632;23.378;2023-05-07T03:21:45;94496.47;;;13.55;60.06
7335;BME280;3708;42.632;23.378;2023-05-07T03:24:13;94502.84;;;13.66;60.28
7335;BME280;3708;42.632;23.378;2023-05-07T03:26:41;94512.28;;;13.55;60.30
7335;BME280;3708;42.632;23.378;2023-05-07T03:29:08;94516.34;;;13.64;60.20
7335;BME280;3708;42.632;23.378;2023-05-07T03:31:34;94508.53;;;13.44;61.36
7335;BME280;3708;42.632;23.378;2023-05-07T03:34:01;94510.97;;;13.49;61.02
7335;BME280;3708;42.632;23.378;2023-05-07T03:36:28;94504.69;;;13.77;60.50
7335;BME280;3708;42.632;23.378;2023-05-07T03:38:55;94508.72;;;13.99;60.00
7335;BME280;3708;42.632;23.378;2023-05-07T03:41:23;94510.53;;;14.23;59.52
7335;BME280;3708;42.632;23.378;2023-05-07T03:43:51;94509.66;;;14.19;59.52
7335;BME280;3708;42.632;23.378;2023-05-07T03:46:17;94524.56;;;14.15;59.67
7335;BME280;3708;42.632;23.378;2023-05-07T03:48:44;94525.88;;;14.33;59.10
7335;BME280;3708;42.632;23.378;2023-05-07T03:51:11;94522.69;;;14.27;58.98
7335;BME280;3708;42.632;23.378;2023-05-07T03:53:38;94521.63;;;14.04;59.47
7335;BME280;3708;42.632;23.378;2023-05-07T03:56:05;94518.56;;;14.02;59.75
7335;BME280;3708;42.632;23.378;2023-05-07T03:58:33;94526.31;;;14.23;59.29
7335;BME280;3708;42.632;23.378;2023-05-07T04:01:00;94529.66;;;14.47;58.74
7335;BME280;3708;42.632;23.378;2023-05-07T04:03:27;94538.13;;;14.53;58.57
7335;BME280;3708;42.632;23.378;2023-05-07T04:05:54;94541.91;;;14.68;58.08
7335;BME280;3708;42.632;23.378;2023-05-07T04:08:21;94548.31;;;14.82;57.86
7335;BME280;3708;42.632;23.378;2023-05-07T04:10:47;94548.38;;;14.70;57.93
7335;BME280;3708;42.632;23.378;2023-05-07T04:13:14;94557.56;;;14.76;57.74
7335;BME280;3708;42.632;23.378;2023-05-07T04:15:42;94553.22;;;14.40;58.82
7335;BME280;3708;42.632;23.378;2023-05-07T04:18:10;94559.72;;;14.59;57.79
7335;BME280;3708;42.632;23.378;2023-05-07T04:20:37;94562.13;;;14.36;59.22
7335;BME280;3708;42.632;23.378;2023-05-07T04:23:03;94571.13;;;14.90;58.23
7335;BME280;3708;42.632;23.378;2023-05-07T04:25:30;94570.91;;;15.11;57.46
7335;BME280;3708;42.632;23.378;2023-05-07T04:27:57;94568.63;;;15.25;57.17
7335;BME280;3708;42.632;23.378;2023-05-07T04:30:24;94581.88;;;15.56;56.72
7335;BME280;3708;42.632;23.378;2023-05-07T04:32:52;94588.19;;;15.67;56.20
7335;BME280;3708;42.632;23.378;2023-05-07T04:35:19;94578.78;;;15.85;55.95
7335;BME280;3708;42.632;23.378;2023-05-07T04:37:46;94581.75;;;15.99;55.53
7335;BME280;3708;42.632;23.378;2023-05-07T04:40:13;94593.97;;;16.23;55.13
7335;BME280;3708;42.632;23.378;2023-05-07T04:42:39;94587.66;;;16.28;54.43
7335;BME280;3708;42.632;23.378;2023-05-07T04:45:07;94582.81;;;16.49;54.33
7335;BME280;3708;42.632;23.378;2023-05-07T04:47:34;94587.34;;;16.67;53.97
7335;BME280;3708;42.632;23.378;2023-05-07T04:50:02;94593.69;;;16.82;53.58
7335;BME280;3708;42.632;23.378;2023-05-07T04:52:29;94593.63;;;16.98;53.12
7335;BME280;3708;42.632;23.378;2023-05-07T04:54:58;94583.56;;;17.07;52.74
7335;BME280;3708;42.632;23.378;2023-05-07T04:57:25;94582.66;;;17.18;52.51
7335;BME280;3708;42.632;23.378;2023-05-07T04:59:52;94593.66;;;17.20;52.36
7335;BME280;3708;42.632;23.378;2023-05-07T05:02:19;94585.75;;;17.01;51.61
7335;BME280;3708;42.632;23.378;2023-05-07T05:04:46;94597.31;;;16.74;51.32
7335;BME280;3708;42.632;23.378;2023-05-07T05:07:14;94595.91;;;16.26;52.66
7335;BME280;3708;42.632;23.378;2023-05-07T05:09:40;94590.13;;;16.21;53.64
7335;BME280;3708;42.632;23.378;2023-05-07T05:12:07;94584.69;;;16.48;53.63
7335;BME280;3708;42.632;23.378;2023-05-07T05:14:35;94585.28;;;16.57;53.47
7335;BME280;3708;42.632;23.378;2023-05-07T05:17:01;94574.91;;;16.87;52.96
7335;BME280;3708;42.632;23.378;2023-05-07T05:19:28;94574.03;;;17.02;52.78
7335;BME280;3708;42.632;23.378;2023-05-07T05:21:55;94581.53;;;17.19;52.70
7335;BME280;3708;42.632;23.378;2023-05-07T05:24:23;94581.84;;;17.37;52.42
7335;BME280;3708;42.632;23.378;2023-05-07T05:26:51;94582.22;;;17.58;51.94
7335;BME280;3708;42.632;23.378;2023-05-07T05:29:19;94580.50;;;17.46;52.04
7335;BME280;3708;42.632;23.378;2023-05-07T05:31:46;94586.66;;;17.50;51.97
7335;BME280;3708;42.632;23.378;2023-05-07T05:34:13;94590.94;;;17.81;51.54
7335;BME280;3708;42.632;23.378;2023-05-07T05:36:40;94591.84;;;17.92;50.97
7335;BME280;3708;42.632;23.378;2023-05-07T05:39:07;94590.91;;;18.04;50.65
7335;BME280;3708;42.632;23.378;2023-05-07T05:41:36;94595.13;;;18.08;50.27
7335;BME280;3708;42.632;23.378;2023-05-07T05:44:03;94595.28;;;18.19;49.90
7335;BME280;3708;42.632;23.378;2023-05-07T05:46:29;94597.63;;;18.24;49.96
7335;BME280;3708;42.632;23.378;2023-05-07T05:48:56;94591.00;;;18.37;49.21
7335;BME280;3708;42.632;23.378;2023-05-07T05:51:23;94592.00;;;18.55;48.88
7335;BME280;3708;42.632;23.378;2023-05-07T05:53:50;94587.31;;;18.75;48.69
7335;BME280;3708;42.632;23.378;2023-05-07T05:56:17;94593.81;;;18.77;48.36
7335;BME280;3708;42.632;23.378;2023-05-07T05:58:46;94588.44;;;18.44;48.58
7335;BME280;3708;42.632;23.378;2023-05-07T06:01:12;94597.91;;;18.71;48.28
7335;BME280;3708;42.632;23.378;2023-05-07T06:03:39;94594.81;;;18.99;47.87
7335;BME280;3708;42.632;23.378;2023-05-07T06:06:06;94592.91;;;18.66;48.09
7335;BME280;3708;42.632;23.378;2023-05-07T06:08:33;94601.38;;;18.46;48.88
7335;BME280;3708;42.632;23.378;2023-05-07T06:11:01;94604.81;;;18.79;48.66
7335;BME280;3708;42.632;23.378;2023-05-07T06:13:27;94600.63;;;19.12;48.00
7335;BME280;3708;42.632;23.378;2023-05-07T06:15:56;94603.09;;;19.27;47.30
7335;BME280;3708;42.632;23.378;2023-05-07T06:18:22;94599.03;;;19.37;47.07
7335;BME280;3708;42.632;23.378;2023-05-07T06:20:49;94599.97;;;19.22;47.20
7335;BME280;3708;42.632;23.378;2023-05-07T06:23:16;94584.50;;;19.31;47.17
7335;BME280;3708;42.632;23.378;2023-05-07T06:25:47;94589.97;;;19.41;46.48
7335;BME280;3708;42.632;23.378;2023-05-07T06:28:14;94590.81;;;19.49;46.15
7335;BME280;3708;42.632;23.378;2023-05-07T06:30:41;94589.50;;;19.76;46.01
7335;BME280;3708;42.632;23.378;2023-05-07T06:33:09;94586.69;;;20.02;45.58
7335;BME280;3708;42.632;23.378;2023-05-07T06:35:36;94589.16;;;20.28;45.01
7335;BME280;3708;42.632;23.378;2023-05-07T06:38:03;94583.13;;;20.38;44.37
7335;BME280;3708;42.632;23.378;2023-05-07T06:40:29;94584.38;;;20.59;44.68
7335;BME280;3708;42.632;23.378;2023-05-07T06:42:56;94575.28;;;20.63;44.02
7335;BME280;3708;42.632;23.378;2023-05-07T06:45:23;94576.88;;;20.78;43.76
7335;BME280;3708;42.632;23.378;2023-05-07T06:47:50;94569.34;;;20.98;42.65
7335;BME280;3708;42.632;23.378;2023-05-07T06:50:18;94561.25;;;20.73;42.89
7335;BME280;3708;42.632;23.378;2023-05-07T06:52:45;94559.78;;;20.90;42.30
7335;BME280;3708;42.632;23.378;2023-05-07T06:55:12;94559.44;;;21.02;42.31
7335;BME280;3708;42.632;23.378;2023-05-07T06:57:39;94563.97;;;20.94;42.37
7335;BME280;3708;42.632;23.378;2023-05-07T07:00:07;94559.06;;;21.00;42.42
7335;BME280;3708;42.632;23.378;2023-05-07T07:02:34;94559.13;;;21.14;41.91
7335;BME280;3708;42.632;23.378;2023-05-07T07:05:01;94556.88;;;21.37;41.43
7335;BME280;3708;42.632;23.378;2023-05-07T07:07:29;94561.44;;;21.15;41.07
7335;BME280;3708;42.632;23.378;2023-05-07T07:09:55;94567.16;;;21.42;40.85
7335;BME280;3708;42.632;23.378;2023-05-07T07:12:22;94566.41;;;21.45;40.56
7335;BME280;3708;42.632;23.378;2023-05-07T07:14:51;94551.13;;;21.10;41.22
7335;BME280;3708;42.632;23.378;2023-05-07T07:17:18;94557.91;;;20.97;41.46
7335;BME280;3708;42.632;23.378;2023-05-07T07:19:44;94561.56;;;20.58;43.31
7335;BME280;3708;42.632;23.378;2023-05-07T07:22:11;94557.53;;;20.99;42.35
7335;BME280;3708;42.632;23.378;2023-05-07T07:24:39;94557.97;;;21.08;42.44
7335;BME280;3708;42.632;23.378;2023-05-07T07:27:06;94553.09;;;20.38;43.90
7335;BME280;3708;42.632;23.378;2023-05-07T07:29:33;94557.47;;;20.78;42.69
7335;BME280;3708;42.632;23.378;2023-05-07T07:31:59;94552.53;;;20.83;42.43
7335;BME280;3708;42.632;23.378;2023-05-07T07:34:26;94552.28;;;21.13;41.70
7335;BME280;3708;42.632;23.378;2023-05-07T07:36:53;94550.03;;;21.36;41.09
7335;BME280;3708;42.632;23.378;2023-05-07T07:39:20;94552.31;;;21.34;41.29
7335;BME280;3708;42.632;23.378;2023-05-07T07:41:48;94555.38;;;21.54;41.21
7335;BME280;3708;42.632;23.378;2023-05-07T07:44:15;94556.91;;;21.72;40.56
7335;BME280;3708;42.632;23.378;2023-05-07T07:46:42;94555.78;;;21.87;40.00
7335;BME280;3708;42.632;23.378;2023-05-07T07:49:09;94560.72;;;22.14;39.67
7335;BME280;3708;42.632;23.378;2023-05-07T07:51:36;94559.53;;;21.30;40.57
7335;BME280;3708;42.632;23.378;2023-05-07T07:54:03;94562.63;;;21.81;40.53
7335;BME280;3708;42.632;23.378;2023-05-07T07:56:31;94567.59;;;21.97;40.76
7335;BME280;3708;42.632;23.378;2023-05-07T07:59:00;94566.81;;;22.18;38.85
7335;BME280;3708;42.632;23.378;2023-05-07T08:01:26;94559.88;;;22.48;39.22
7335;BME280;3708;42.632;23.378;2023-05-07T08:03:53;94562.94;;;21.20;40.59
7335;BME280;3708;42.632;23.378;2023-05-07T08:06:20;94564.16;;;21.68;40.23
7335;BME280;3708;42.632;23.378;2023-05-07T08:08:47;94560.72;;;22.21;38.93
7335;BME280;3708;42.632;23.378;2023-05-07T08:11:14;94558.31;;;22.58;38.57
7335;BME280;3708;42.632;23.378;2023-05-07T08:13:41;94561.38;;;22.63;39.27
7335;BME280;3708;42.632;23.378;2023-05-07T08:16:09;94558.94;;;23.01;38.61
7335;BME280;3708;42.632;23.378;2023-05-07T08:18:36;94559.47;;;23.51;37.56
7335;BME280;3708;42.632;23.378;2023-05-07T08:21:03;94559.28;;;23.72;37.41
7335;BME280;3708;42.632;23.378;2023-05-07T08:23:30;94564.00;;;22.81;39.32
7335;BME280;3708;42.632;23.378;2023-05-07T08:25:57;94561.22;;;23.02;39.15
7335;BME280;3708;42.632;23.378;2023-05-07T08:28:24;94555.72;;;23.27;38.54
7335;BME280;3708;42.632;23.378;2023-05-07T08:30:51;94557.88;;;23.57;37.42
7335;BME280;3708;42.632;23.378;2023-05-07T08:33:19;94555.53;;;23.62;36.57
7335;BME280;3708;42.632;23.378;2023-05-07T08:35:46;94555.19;;;22.84;38.62
7335;BME280;3708;42.632;23.378;2023-05-07T08:38:13;94548.22;;;23.08;38.00
7335;BME280;3708;42.632;23.378;2023-05-07T08:40:39;94546.34;;;23.67;37.40
7335;BME280;3708;42.632;23.378;2023-05-07T08:43:07;94547.31;;;23.87;37.21
7335;BME280;3708;42.632;23.378;2023-05-07T08:45:35;94540.63;;;23.65;36.71
7335;BME280;3708;42.632;23.378;2023-05-07T08:48:02;94553.16;;;23.75;36.06
7335;BME280;3708;42.632;23.378;2023-05-07T08:50:31;94539.97;;;23.98;35.92
7335;BME280;3708;42.632;23.378;2023-05-07T08:52:58;94544.97;;;23.96;37.12
7335;BME280;3708;42.632;23.378;2023-05-07T08:55:25;94546.16;;;23.88;35.53
7335;BME280;3708;42.632;23.378;2023-05-07T08:57:52;94544.94;;;24.40;34.98
7335;BME280;3708;42.632;23.378;2023-05-07T09:00:19;94535.06;;;24.67;34.24
7335;BME280;3708;42.632;23.378;2023-05-07T09:02:46;94530.16;;;24.62;32.88
7335;BME280;3708;42.632;23.378;2023-05-07T09:05:12;94531.22;;;24.68;33.23
7335;BME280;3708;42.632;23.378;2023-05-07T09:07:41;94529.69;;;25.01;32.87
7335;BME280;3708;42.632;23.378;2023-05-07T09:10:08;94534.00;;;25.22;32.09
7335;BME280;3708;42.632;23.378;2023-05-07T09:12:35;94527.34;;;25.33;32.97
7335;BME280;3708;42.632;23.378;2023-05-07T09:15:02;94525.75;;;25.62;31.36
7335;BME280;3708;42.632;23.378;2023-05-07T09:17:29;94526.25;;;25.81;30.91
7335;BME280;3708;42.632;23.378;2023-05-07T09:19:56;94517.09;;;25.78;32.16
7335;BME280;3708;42.632;23.378;2023-05-07T09:22:22;94520.06;;;26.30;30.69
7335;BME280;3708;42.632;23.378;2023-05-07T09:24:52;94516.97;;;25.85;29.83
7335;BME280;3708;42.632;23.378;2023-05-07T09:27:19;94521.19;;;26.09;29.57
7335;BME280;3708;42.632;23.378;2023-05-07T09:29:45;94515.25;;;24.95;30.79
7335;BME280;3708;42.632;23.378;2023-05-07T09:32:12;94515.47;;;24.77;31.21
7335;BME280;3708;42.632;23.378;2023-05-07T09:34:41;94505.34;;;25.45;30.15
7335;BME280;3708;42.632;23.378;2023-05-07T09:37:08;94512.72;;;25.38;30.50
7335;BME280;3708;42.632;23.378;2023-05-07T09:39:39;94503.78;;;25.48;30.19
7335;BME280;3708;42.632;23.378;2023-05-07T09:42:07;94499.41;;;25.31;30.84
7335;BME280;3708;42.632;23.378;2023-05-07T09:44:34;94501.00;;;25.55;30.23
7335;BME280;3708;42.632;23.378;2023-05-07T09:47:03;94496.94;;;25.66;29.29
7335;BME280;3708;42.632;23.378;2023-05-07T09:49:34;94493.00;;;25.25;30.44
7335;BME280;3708;42.632;23.378;2023-05-07T09:52:03;94491.41;;;25.54;30.12
7335;BME280;3708;42.632;23.378;2023-05-07T09:54:32;94496.50;;;25.48;28.76
7335;BME280;3708;42.632;23.378;2023-05-07T09:57:01;94497.72;;;25.67;29.36
7335;BME280;3708;42.632;23.378;2023-05-07T09:59:31;94506.38;;;25.51;30.03
7335;BME280;3708;42.632;23.378;2023-05-07T10:02:01;94498.94;;;25.62;28.85
7335;BME280;3708;42.632;23.378;2023-05-07T10:04:28;94489.63;;;24.60;30.09
7335;BME280;3708;42.632;23.378;2023-05-07T10:06:55;94493.38;;;24.96;29.75
7335;BME280;3708;42.632;23.378;2023-05-07T10:09:23;94481.91;;;25.23;29.63
7335;BME280;3708;42.632;23.378;2023-05-07T10:11:52;94480.34;;;25.75;29.01
7335;BME280;3708;42.632;23.378;2023-05-07T10:14:20;94473.22;;;26.11;28.31
7335;BME280;3708;42.632;23.378;2023-05-07T10:16:49;94483.72;;;26.02;27.82
7335;BME280;3708;42.632;23.378;2023-05-07T10:19:16;94479.81;;;25.60;28.48
7335;BME280;3708;42.632;23.378;2023-05-07T10:21:48;94483.25;;;25.61;28.80
7335;BME280;3708;42.632;23.378;2023-05-07T10:24:21;94474.50;;;25.57;29.00
7335;BME280;3708;42.632;23.378;2023-05-07T10:26:50;94469.16;;;25.57;27.87
7335;BME280;3708;42.632;23.378;2023-05-07T10:29:25;94458.84;;;26.21;27.32
7335;BME280;3708;42.632;23.378;2023-05-07T10:32:03;94461.16;;;25.53;28.63
7335;BME280;3708;42.632;23.378;2023-05-07T10:34:37;94463.84;;;25.00;29.15
7335;BME280;3708;42.632;23.378;2023-05-07T10:37:05;94456.22;;;24.98;29.37
7335;BME280;3708;42.632;23.378;2023-05-07T10:39:32;94454.84;;;25.14;29.21
7335;BME280;3708;42.632;23.378;2023-05-07T10:42:08;94445.56;;;25.91;27.91
7335;BME280;3708;42.632;23.378;2023-05-07T10:44:35;94447.88;;;26.52;27.34
7335;BME280;3708;42.632;23.378;2023-05-07T10:47:11;94447.22;;;26.83;27.23
7335;BME280;3708;42.632;23.378;2023-05-07T10:52:38;94445.56;;;26.89;26.76
7335;BME280;3708;42.632;23.378;2023-05-07T10:55:21;94446.72;;;27.56;26.31
7335;BME280;3708;42.632;23.378;2023-05-07T10:57:50;94452.75;;;27.92;25.20
7335;BME280;3708;42.632;23.378;2023-05-07T11:00:42;94447.50;;;27.41;25.81
7335;BME280;3708;42.632;23.378;2023-05-07T11:03:10;94447.19;;;28.00;25.24
7335;BME280;3708;42.632;23.378;2023-05-07T11:05:38;94447.31;;;26.60;26.60
7335;BME280;3708;42.632;23.378;2023-05-07T11:08:05;94452.59;;;25.62;27.59
7335;BME280;3708;42.632;23.378;2023-05-07T11:10:48;94441.56;;;25.99;27.40
7335;BME280;3708;42.632;23.378;2023-05-07T11:13:15;94440.16;;;26.54;26.87
7335;BME280;3708;42.632;23.378;2023-05-07T11:15:43;94439.75;;;27.10;26.69
7335;BME280;3708;42.632;23.378;2023-05-07T11:18:14;94444.34;;;27.26;26.36
7335;BME280;3708;42.632;23.378;2023-05-07T11:20:49;94447.19;;;28.00;24.97
7335;BME280;3708;42.632;23.378;2023-05-07T11:26:16;94440.03;;;28.92;24.17
7335;BME280;3708;42.632;23.378;2023-05-07T11:28:43;94430.06;;;29.64;24.17
7335;BME280;3708;42.632;23.378;2023-05-07T11:31:10;94440.25;;;30.50;23.10
7335;BME280;3708;42.632;23.378;2023-05-07T11:33:39;94434.22;;;29.31;22.55
7335;BME280;3708;42.632;23.378;2023-05-07T11:36:08;94429.91;;;28.42;23.85
7335;BME280;3708;42.632;23.378;2023-05-07T11:38:35;94435.16;;;28.33;24.12
7335;BME280;3708;42.632;23.378;2023-05-07T11:41:03;94429.66;;;29.03;23.20
7335;BME280;3708;42.632;23.378;2023-05-07T11:43:30;94420.97;;;29.24;22.77
7335;BME280;3708;42.632;23.378;2023-05-07T11:46:05;94428.25;;;29.49;22.67
7335;BME280;3708;42.632;23.378;2023-05-07T11:48:33;94425.00;;;30.00;22.18
7335;BME280;3708;42.632;23.378;2023-05-07T11:51:03;94418.06;;;30.12;22.68
7335;BME280;3708;42.632;23.378;2023-05-07T11:53:36;94425.94;;;30.41;21.46
7335;BME280;3708;42.632;23.378;2023-05-07T11:56:06;94426.25;;;30.08;22.08
7335;BME280;3708;42.632;23.378;2023-05-07T11:58:33;94432.91;;;28.31;23.24
7335;BME280;3708;42.632;23.378;2023-05-07T12:01:00;94428.75;;;27.53;24.51
7335;BME280;3708;42.632;23.378;2023-05-07T12:03:27;94431.00;;;28.16;24.13
7335;BME280;3708;42.632;23.378;2023-05-07T12:05:54;94419.88;;;28.96;23.59
7335;BME280;3708;42.632;23.378;2023-05-07T12:08:22;94421.34;;;28.72;23.10
7335;BME280;3708;42.632;23.378;2023-05-07T12:10:49;94402.47;;;29.10;22.84
7335;BME280;3708;42.632;23.378;2023-05-07T12:13:17;94400.34;;;29.17;22.82
7335;BME280;3708;42.632;23.378;2023-05-07T12:15:44;94396.59;;;29.96;21.80
7335;BME280;3708;42.632;23.378;2023-05-07T12:18:11;94407.34;;;30.30;22.22
7335;BME280;3708;42.632;23.378;2023-05-07T12:20:39;94406.75;;;30.48;21.41
7335;BME280;3708;42.632;23.378;2023-05-07T12:23:06;94389.22;;;31.32;21.93
7335;BME280;3708;42.632;23.378;2023-05-07T12:25:36;94386.75;;;31.55;20.71
7335;BME280;3708;42.632;23.378;2023-05-07T12:28:03;94385.25;;;31.54;21.01
7335;BME280;3708;42.632;23.378;2023-05-07T12:30:30;94389.47;;;31.55;20.61
7335;BME280;3708;42.632;23.378;2023-05-07T12:32:58;94381.22;;;31.59;20.23
7335;BME280;3708;42.632;23.378;2023-05-07T12:35:27;94373.34;;;31.43;20.47
7335;BME280;3708;42.632;23.378;2023-05-07T12:37:55;94370.75;;;31.30;20.29
7335;BME280;3708;42.632;23.378;2023-05-07T12:40:22;94371.25;;;31.56;20.14
7335;BME280;3708;42.632;23.378;2023-05-07T12:43:01;94365.28;;;31.70;19.46
7335;BME280;3708;42.632;23.378;2023-05-07T12:45:28;94373.41;;;31.97;19.76
7335;BME280;3708;42.632;23.378;2023-05-07T12:47:55;94366.13;;;32.40;19.83
7335;BME280;3708;42.632;23.378;2023-05-07T12:50:22;94362.28;;;32.04;20.17
7335;BME280;3708;42.632;23.378;2023-05-07T12:52:49;94360.19;;;32.77;19.81
7335;BME280;3708;42.632;23.378;2023-05-07T12:55:16;94358.13;;;33.05;18.69
7335;BME280;3708;42.632;23.378;2023-05-07T12:57:47;94361.06;;;31.87;18.85
7335;BME280;3708;42.632;23.378;2023-05-07T13:00:17;94357.41;;;32.26;19.16
7335;BME280;3708;42.632;23.378;2023-05-07T13:02:45;94349.09;;;32.57;18.58
7335;BME280;3708;42.632;23.378;2023-05-07T13:05:12;94352.56;;;32.40;18.92
7335;BME280;3708;42.632;23.378;2023-05-07T13:07:39;94349.31;;;32.08;19.45
7335;BME280;3708;42.632;23.378;2023-05-07T13:10:07;94342.38;;;32.25;18.92
7335;BME280;3708;42.632;23.378;2023-05-07T13:12:34;94342.56;;;32.73;18.83
7335;BME280;3708;42.632;23.378;2023-05-07T13:15:01;94336.91;;;32.85;18.38
7335;BME280;3708;42.632;23.378;2023-05-07T13:17:29;94336.44;;;32.87;18.16